createdAt,value
2018-04-30T00:00:07.977Z,14.47
2018-04-30T00:02:35.397Z,14.49
2018-04-30T00:05:02.857Z,14.50
2018-04-30T00:07:30.275Z,14.53
2018-04-30T00:09:57.697Z,14.57
2018-04-30T00:12:25.112Z,14.59
2018-04-30T00:14:52.536Z,14.63
2018-04-30T00:17:19.949Z,14.65
2018-04-30T00:19:47.360Z,14.64
2018-04-30T00:22:14.791Z,14.63
2018-04-30T00:24:42.208Z,14.57
2018-04-30T00:27:09.636Z,14.50
2018-04-30T00:29:37.056Z,14.45
2018-04-30T00:32:04.478Z,14.41
2018-04-30T00:34:31.900Z,14.37
2018-04-30T00:36:59.316Z,14.30
2018-04-30T00:39:26.736Z,14.25
2018-04-30T00:41:54.160Z,14.21
2018-04-30T00:44:21.577Z,14.17
2018-04-30T00:46:48.997Z,14.14
2018-04-30T00:49:16.410Z,14.11
2018-04-30T00:51:43.833Z,14.08
2018-04-30T00:54:11.248Z,14.12
2018-04-30T00:56:38.680Z,14.11
2018-04-30T00:59:06.094Z,14.08
2018-04-30T01:01:33.525Z,14.08
2018-04-30T01:04:00.940Z,14.07
2018-04-30T01:06:28.360Z,14.07
2018-04-30T01:08:55.770Z,14.05
2018-04-30T01:11:23.196Z,14.02
2018-04-30T01:13:50.609Z,14.02
2018-04-30T01:16:18.040Z,14.05
2018-04-30T01:18:45.495Z,14.08
2018-04-30T01:21:12.913Z,14.06
2018-04-30T01:23:40.329Z,14.03
2018-04-30T01:26:07.753Z,14.02
2018-04-30T01:28:35.172Z,14.06
2018-04-30T01:31:02.592Z,14.03
2018-04-30T01:33:30.013Z,14.03
2018-04-30T01:35:57.433Z,14.04
2018-04-30T01:38:24.844Z,14.05
2018-04-30T01:40:52.256Z,14.06
2018-04-30T01:43:19.677Z,14.07
2018-04-30T01:45:47.099Z,14.06
2018-04-30T01:48:14.513Z,14.03
2018-04-30T01:50:41.933Z,14.01
2018-04-30T01:53:09.354Z,13.98
2018-04-30T01:55:36.760Z,13.95
2018-04-30T01:58:04.176Z,13.93
2018-04-30T02:00:31.597Z,13.90
2018-04-30T02:02:59.011Z,13.90
2018-04-30T02:05:26.428Z,13.92
2018-04-30T02:07:53.839Z,13.91
2018-04-30T02:10:21.253Z,13.88
2018-04-30T02:12:48.681Z,13.87
2018-04-30T02:15:16.089Z,13.86
2018-04-30T02:17:43.508Z,13.86
2018-04-30T02:20:10.924Z,13.87
2018-04-30T02:22:38.332Z,13.89
2018-04-30T02:25:05.752Z,13.86
2018-04-30T02:27:33.204Z,13.86
2018-04-30T02:30:00.614Z,13.85
2018-04-30T02:32:28.037Z,13.85
2018-04-30T02:34:55.440Z,13.82
2018-04-30T02:37:22.864Z,13.82
2018-04-30T02:39:50.274Z,13.79
2018-04-30T02:42:17.692Z,13.79
2018-04-30T02:44:45.104Z,13.81
2018-04-30T02:47:12.524Z,13.83
2018-04-30T02:49:39.945Z,13.86
2018-04-30T02:52:07.367Z,13.88
2018-04-30T02:54:34.777Z,13.89
2018-04-30T02:57:02.197Z,13.89
2018-04-30T02:59:29.610Z,13.91
2018-04-30T03:01:57.025Z,13.90
2018-04-30T03:04:24.439Z,13.91
2018-04-30T03:06:51.853Z,13.93
2018-04-30T03:09:19.261Z,13.95
2018-04-30T03:11:46.703Z,13.97
2018-04-30T03:14:14.112Z,13.95
2018-04-30T03:16:41.540Z,13.94
2018-04-30T03:19:08.945Z,13.95
2018-04-30T03:21:36.360Z,13.97
2018-04-30T03:24:03.780Z,14.00
2018-04-30T03:26:31.201Z,14.00
2018-04-30T03:28:58.614Z,13.95
2018-04-30T03:31:26.057Z,13.90
2018-04-30T03:33:53.472Z,13.92
2018-04-30T03:36:20.884Z,13.93
2018-04-30T03:38:48.292Z,13.95
2018-04-30T03:41:15.704Z,13.94
2018-04-30T03:43:43.120Z,13.91
2018-04-30T03:46:10.527Z,13.90
2018-04-30T03:48:37.945Z,13.90
2018-04-30T03:51:05.426Z,13.91
2018-04-30T03:53:32.781Z,13.92
2018-04-30T03:56:00.192Z,13.92
2018-04-30T03:58:27.608Z,13.93
2018-04-30T04:01:06.777Z,13.95
2018-04-30T04:03:45.905Z,13.94
2018-04-30T04:09:14.290Z,13.82
2018-04-30T04:11:41.703Z,13.82
2018-04-30T04:14:09.124Z,13.81
2018-04-30T04:16:36.540Z,13.78
2018-04-30T04:19:03.952Z,13.75
2018-04-30T04:21:31.367Z,13.76
2018-04-30T04:23:58.780Z,13.76
2018-04-30T04:26:26.193Z,13.71
2018-04-30T04:28:53.612Z,13.70
2018-04-30T04:31:21.025Z,13.70
2018-04-30T04:33:48.456Z,13.72
2018-04-30T04:36:15.873Z,13.77
2018-04-30T04:38:43.285Z,13.80
2018-04-30T04:41:10.696Z,13.85
2018-04-30T04:43:38.124Z,13.85
2018-04-30T04:46:05.529Z,13.89
2018-04-30T04:48:32.949Z,13.93
2018-04-30T04:51:00.348Z,13.98
2018-04-30T04:53:27.783Z,13.99
2018-04-30T04:55:55.188Z,14.03
2018-04-30T04:58:22.614Z,14.05
2018-04-30T05:00:50.021Z,14.07
2018-04-30T05:03:17.441Z,14.11
2018-04-30T05:05:44.856Z,14.17
2018-04-30T05:08:12.281Z,14.20
2018-04-30T05:10:39.695Z,14.24
2018-04-30T05:13:07.114Z,14.29
2018-04-30T05:15:34.529Z,14.34
2018-04-30T05:18:01.957Z,14.38
2018-04-30T05:20:29.377Z,14.43
2018-04-30T05:22:56.790Z,14.50
2018-04-30T05:25:24.206Z,14.56
2018-04-30T05:27:51.624Z,14.65
2018-04-30T05:30:19.030Z,14.77
2018-04-30T05:32:46.457Z,14.91
2018-04-30T05:35:13.853Z,15.05
2018-04-30T05:37:41.261Z,15.19
2018-04-30T05:40:08.683Z,15.32
2018-04-30T05:42:36.093Z,15.42
2018-04-30T05:45:03.519Z,15.52
2018-04-30T05:47:30.929Z,15.58
2018-04-30T05:49:58.352Z,15.66
2018-04-30T05:52:25.768Z,15.78
2018-04-30T05:54:53.189Z,15.86
2018-04-30T05:57:20.602Z,15.90
2018-04-30T05:59:48.020Z,15.91
2018-04-30T06:02:15.428Z,15.95
2018-04-30T06:04:42.849Z,15.98
2018-04-30T06:07:10.261Z,16.05
2018-04-30T06:09:37.671Z,16.12
2018-04-30T06:12:05.130Z,16.16
2018-04-30T06:14:32.500Z,16.19
2018-04-30T06:16:59.917Z,16.23
2018-04-30T06:19:27.332Z,16.24
2018-04-30T06:21:54.748Z,16.23
2018-04-30T06:24:22.167Z,16.24
2018-04-30T06:26:49.685Z,16.26
2018-04-30T06:29:16.997Z,16.31
2018-04-30T06:31:44.413Z,16.33
2018-04-30T06:34:11.834Z,16.38
2018-04-30T06:36:39.253Z,16.46
2018-04-30T06:39:06.667Z,16.54
2018-04-30T06:41:34.083Z,16.58
2018-04-30T06:44:01.503Z,16.61
2018-04-30T06:46:28.923Z,16.61
2018-04-30T06:48:56.336Z,16.66
2018-04-30T06:51:23.744Z,16.72
2018-04-30T06:53:51.164Z,16.75
2018-04-30T06:56:18.576Z,16.77
2018-04-30T06:58:46.008Z,16.81
2018-04-30T07:01:13.417Z,16.87
2018-04-30T07:03:40.840Z,17.08
2018-04-30T07:06:08.253Z,17.34
2018-04-30T07:08:35.672Z,17.67
2018-04-30T07:11:03.080Z,17.95
2018-04-30T07:13:30.490Z,18.01
2018-04-30T07:15:57.908Z,18.01
2018-04-30T07:18:25.321Z,17.98
2018-04-30T07:20:52.768Z,17.92
2018-04-30T07:23:20.188Z,17.86
2018-04-30T07:25:47.605Z,17.79
2018-04-30T07:28:15.019Z,17.81
2018-04-30T07:30:42.440Z,17.87
2018-04-30T07:33:09.852Z,17.98
2018-04-30T07:35:37.276Z,18.11
2018-04-30T07:38:04.686Z,18.36
2018-04-30T07:40:32.097Z,18.40
2018-04-30T07:42:59.512Z,18.42
2018-04-30T07:45:26.928Z,18.45
2018-04-30T07:47:54.338Z,18.43
2018-04-30T07:50:21.756Z,18.45
2018-04-30T07:52:49.171Z,18.45
2018-04-30T07:55:16.597Z,18.44
2018-04-30T07:57:44.009Z,18.47
2018-04-30T08:00:11.420Z,18.53
2018-04-30T08:02:38.859Z,18.57
2018-04-30T08:05:06.245Z,18.65
2018-04-30T08:07:33.661Z,18.79
2018-04-30T08:10:01.082Z,18.91
2018-04-30T08:12:28.495Z,18.93
2018-04-30T08:14:55.971Z,18.97
2018-04-30T08:17:23.329Z,19.01
2018-04-30T08:19:50.744Z,19.06
2018-04-30T08:22:18.158Z,19.15
2018-04-30T08:24:45.603Z,19.26
2018-04-30T08:27:13.013Z,19.35
2018-04-30T08:29:40.432Z,19.37
2018-04-30T08:32:07.856Z,19.44
2018-04-30T08:34:35.268Z,19.44
2018-04-30T08:37:02.681Z,19.49
2018-04-30T08:39:30.108Z,19.52
2018-04-30T08:41:57.518Z,19.58
2018-04-30T08:44:24.936Z,19.66
2018-04-30T08:46:52.366Z,19.68
2018-04-30T08:49:19.829Z,19.72
2018-04-30T08:51:47.248Z,19.79
2018-04-30T08:54:14.653Z,19.82
2018-04-30T08:56:42.069Z,19.80
2018-04-30T08:59:09.477Z,19.81
2018-04-30T09:01:36.904Z,19.77
2018-04-30T09:04:04.318Z,19.77
2018-04-30T09:06:31.744Z,19.76
2018-04-30T09:08:59.147Z,19.75
2018-04-30T09:11:26.568Z,19.75
2018-04-30T09:13:53.985Z,19.72
2018-04-30T09:16:21.412Z,19.74
2018-04-30T09:18:48.821Z,19.76
2018-04-30T09:21:16.241Z,19.83
2018-04-30T09:23:43.653Z,19.91
2018-04-30T09:26:11.077Z,19.95
2018-04-30T09:28:38.489Z,19.96
2018-04-30T09:31:05.909Z,20.00
2018-04-30T09:33:33.340Z,20.06
2018-04-30T09:36:00.776Z,20.06
2018-04-30T09:38:28.193Z,20.08
2018-04-30T09:40:55.608Z,20.08
2018-04-30T09:43:23.054Z,20.05
2018-04-30T09:45:50.489Z,20.03
2018-04-30T09:48:17.901Z,20.05
2018-04-30T09:50:45.381Z,20.08
2018-04-30T09:53:12.728Z,20.12
2018-04-30T09:55:40.145Z,20.16
2018-04-30T09:58:07.557Z,20.17
2018-04-30T10:00:34.976Z,20.20
2018-04-30T10:03:02.384Z,20.14
2018-04-30T10:05:29.836Z,20.10
2018-04-30T10:07:57.236Z,20.01
2018-04-30T10:10:24.657Z,19.85
2018-04-30T10:12:52.073Z,19.73
2018-04-30T10:15:19.492Z,19.63
2018-04-30T10:17:46.972Z,19.56
2018-04-30T10:20:14.373Z,19.48
2018-04-30T10:22:41.807Z,19.41
2018-04-30T10:25:09.232Z,19.28
2018-04-30T10:27:36.660Z,19.21
2018-04-30T10:30:04.066Z,19.13
2018-04-30T10:32:31.580Z,19.13
2018-04-30T10:34:58.988Z,19.14
2018-04-30T10:37:26.408Z,19.17
2018-04-30T10:39:53.820Z,19.15
2018-04-30T10:42:21.241Z,19.10
2018-04-30T10:44:48.652Z,18.99
2018-04-30T10:47:16.069Z,18.84
2018-04-30T10:49:43.481Z,18.72
2018-04-30T10:52:10.904Z,18.64
2018-04-30T10:54:38.325Z,18.55
2018-04-30T10:57:05.748Z,18.52
2018-04-30T10:59:33.184Z,18.49
2018-04-30T11:02:00.600Z,18.46
2018-04-30T11:04:28.022Z,18.50
2018-04-30T11:06:55.440Z,18.62
2018-04-30T11:09:22.852Z,18.86
2018-04-30T11:11:50.272Z,19.06
2018-04-30T11:14:17.684Z,19.09
2018-04-30T11:16:45.101Z,19.02
2018-04-30T11:19:12.540Z,18.97
2018-04-30T11:21:39.957Z,18.91
2018-04-30T11:24:07.365Z,19.04
2018-04-30T11:26:34.788Z,19.24
2018-04-30T11:29:02.201Z,19.22
2018-04-30T11:31:30.480Z,19.16
2018-04-30T11:33:57.892Z,19.04
2018-04-30T11:36:25.336Z,18.89
2018-04-30T11:38:52.747Z,18.75
2018-04-30T11:41:20.174Z,18.65
2018-04-30T11:43:47.592Z,18.54
2018-04-30T11:46:15.007Z,18.44
2018-04-30T11:48:42.420Z,18.33
2018-04-30T11:51:09.844Z,18.18
2018-04-30T11:53:37.262Z,18.11
2018-04-30T11:56:04.680Z,18.03
2018-04-30T11:58:32.084Z,18.05
2018-04-30T12:00:59.516Z,18.02
2018-04-30T12:03:26.933Z,17.91
2018-04-30T12:05:54.345Z,17.75
2018-04-30T12:08:21.766Z,17.78
2018-04-30T12:10:49.179Z,17.75
2018-04-30T12:13:16.620Z,17.74
2018-04-30T12:15:44.047Z,17.75
2018-04-30T12:18:11.474Z,17.70
2018-04-30T12:20:38.884Z,17.67
2018-04-30T12:23:06.308Z,17.62
2018-04-30T12:25:33.725Z,17.60
2018-04-30T12:28:01.148Z,17.59
2018-04-30T12:30:28.561Z,17.56
2018-04-30T12:32:55.985Z,17.59
2018-04-30T12:35:23.396Z,17.55
2018-04-30T12:37:50.811Z,17.47
2018-04-30T12:40:18.221Z,17.38
2018-04-30T12:42:45.645Z,17.30
2018-04-30T12:45:13.068Z,17.18
2018-04-30T12:47:40.487Z,17.08
2018-04-30T12:50:07.897Z,16.97
2018-04-30T12:52:35.315Z,16.85
2018-04-30T12:55:02.728Z,16.74
2018-04-30T12:57:30.144Z,16.61
2018-04-30T12:59:57.557Z,16.57
2018-04-30T13:02:24.996Z,16.54
2018-04-30T13:04:52.377Z,16.47
2018-04-30T13:07:19.794Z,16.47
2018-04-30T13:09:47.241Z,16.44
2018-04-30T13:12:14.660Z,16.42
2018-04-30T13:14:42.073Z,16.41
2018-04-30T13:17:09.497Z,16.44
2018-04-30T13:19:36.905Z,16.41
2018-04-30T13:22:04.329Z,16.44
2018-04-30T13:24:31.744Z,16.44
2018-04-30T13:26:59.157Z,16.43
2018-04-30T13:29:26.564Z,16.35
2018-04-30T13:31:53.979Z,16.25
2018-04-30T13:34:21.385Z,16.24
2018-04-30T13:36:48.805Z,16.28
2018-04-30T13:39:16.216Z,16.26
2018-04-30T13:41:43.631Z,16.37
2018-04-30T13:44:11.038Z,16.38
2018-04-30T13:46:38.450Z,16.39
2018-04-30T13:49:05.861Z,16.38
2018-04-30T13:51:33.257Z,16.39
2018-04-30T13:54:00.672Z,16.39
2018-04-30T13:56:28.104Z,16.43
2018-04-30T13:58:55.512Z,16.48
2018-04-30T14:01:22.947Z,16.52
2018-04-30T14:03:50.328Z,16.58
2018-04-30T14:06:17.731Z,16.67
2018-04-30T14:08:45.144Z,16.78
2018-04-30T14:11:12.545Z,16.93
2018-04-30T14:13:39.958Z,17.08
2018-04-30T14:16:07.451Z,17.18
2018-04-30T14:18:34.784Z,17.20
2018-04-30T14:21:02.205Z,17.23
2018-04-30T14:23:29.608Z,17.27
2018-04-30T14:25:57.033Z,17.28
2018-04-30T14:28:24.465Z,17.47
2018-04-30T14:30:51.866Z,17.55
2018-04-30T14:33:19.292Z,17.87
2018-04-30T14:35:46.693Z,18.12
2018-04-30T14:38:14.103Z,18.21
2018-04-30T14:40:41.512Z,18.27
2018-04-30T14:43:08.932Z,18.34
2018-04-30T14:45:36.326Z,18.58
2018-04-30T14:48:03.737Z,18.80
2018-04-30T14:50:31.136Z,18.97
2018-04-30T14:52:58.553Z,19.08
2018-04-30T14:55:25.965Z,19.15
2018-04-30T14:57:53.385Z,19.19
2018-04-30T15:00:20.800Z,19.36
2018-04-30T15:02:48.205Z,19.43
2018-04-30T15:05:15.602Z,19.50
2018-04-30T15:07:43.012Z,19.61
2018-04-30T15:10:10.412Z,19.68
2018-04-30T15:12:37.839Z,19.77
2018-04-30T15:15:05.252Z,19.83
2018-04-30T15:17:32.654Z,19.80
2018-04-30T15:20:00.078Z,19.73
2018-04-30T15:22:27.476Z,19.78
2018-04-30T15:24:54.888Z,19.96
2018-04-30T15:27:22.313Z,20.06
2018-04-30T15:29:49.749Z,19.99
2018-04-30T15:32:17.333Z,19.88
2018-04-30T15:34:44.752Z,19.81
2018-04-30T15:37:12.183Z,19.75
2018-04-30T15:39:39.584Z,19.71
2018-04-30T15:42:07.087Z,19.75
2018-04-30T15:44:34.434Z,19.63
2018-04-30T15:47:01.875Z,19.47
2018-04-30T15:49:29.259Z,19.28
2018-04-30T15:51:56.677Z,19.27
2018-04-30T15:54:24.113Z,19.24
2018-04-30T15:56:51.517Z,19.28
2018-04-30T15:59:18.929Z,19.25
2018-04-30T16:01:46.340Z,19.16
2018-04-30T16:04:13.756Z,19.07
2018-04-30T16:06:41.171Z,19.05
2018-04-30T16:09:08.579Z,18.99
2018-04-30T16:11:35.993Z,18.96
2018-04-30T16:14:03.450Z,18.92
2018-04-30T16:16:30.824Z,18.83
2018-04-30T16:18:58.261Z,18.74
2018-04-30T16:21:25.672Z,18.64
2018-04-30T16:23:53.089Z,18.58
2018-04-30T16:26:20.495Z,18.64
2018-04-30T16:28:47.912Z,18.66
2018-04-30T16:31:15.323Z,18.66
2018-04-30T16:33:42.732Z,18.61
2018-04-30T16:36:10.142Z,18.63
2018-04-30T16:38:37.557Z,18.66
2018-04-30T16:41:04.965Z,18.68
2018-04-30T16:43:32.367Z,18.76
2018-04-30T16:45:59.781Z,18.95
2018-04-30T16:48:27.185Z,19.09
2018-04-30T16:50:54.609Z,19.09
2018-04-30T16:53:22.028Z,19.05
2018-04-30T16:55:49.435Z,18.99
2018-04-30T16:58:16.840Z,18.96
2018-04-30T17:00:44.252Z,18.94
2018-04-30T17:03:11.664Z,18.91
2018-04-30T17:05:39.087Z,18.90
2018-04-30T17:08:06.509Z,18.84
2018-04-30T17:10:33.945Z,18.81
2018-04-30T17:13:01.345Z,18.74
2018-04-30T17:15:28.751Z,18.73
2018-04-30T17:17:56.159Z,18.68
2018-04-30T17:20:23.567Z,18.70
2018-04-30T17:22:50.973Z,18.65
2018-04-30T17:25:18.380Z,18.63
2018-04-30T17:27:45.784Z,18.50
2018-04-30T17:30:13.203Z,18.43
2018-04-30T17:32:40.604Z,18.37
2018-04-30T17:35:08.029Z,18.37
2018-04-30T17:37:35.432Z,18.40
2018-04-30T17:40:02.848Z,18.37
2018-04-30T17:42:30.315Z,18.35
2018-04-30T17:44:57.668Z,18.35
2018-04-30T17:47:25.080Z,18.32
2018-04-30T17:49:52.505Z,18.31
2018-04-30T17:52:19.951Z,18.27
2018-04-30T17:54:47.342Z,18.22
2018-04-30T17:57:14.742Z,18.16
2018-04-30T17:59:42.156Z,18.15
2018-04-30T18:02:09.556Z,18.19
2018-04-30T18:04:37.005Z,18.21
2018-04-30T18:07:04.464Z,18.23
2018-04-30T18:09:31.840Z,18.28
2018-04-30T18:11:59.260Z,18.25
2018-04-30T18:14:26.674Z,18.21
2018-04-30T18:16:54.076Z,18.24
2018-04-30T18:19:21.475Z,18.19
2018-04-30T18:21:48.896Z,18.19
2018-04-30T18:24:16.308Z,18.15
2018-04-30T18:26:43.727Z,18.14
2018-04-30T18:29:11.193Z,18.15
2018-04-30T18:31:38.620Z,18.16
2018-04-30T18:34:06.077Z,18.16
2018-04-30T18:36:33.520Z,18.15
2018-04-30T18:39:01.011Z,18.17
2018-04-30T18:41:28.440Z,18.19
2018-04-30T18:43:55.902Z,18.13
2018-04-30T18:46:23.325Z,18.06
2018-04-30T18:48:50.742Z,17.99
2018-04-30T18:51:18.148Z,18.00
2018-04-30T18:53:45.560Z,17.93
2018-04-30T18:56:13.044Z,17.89
2018-04-30T19:01:14.305Z,17.76
2018-04-30T19:03:42.813Z,17.73
2018-04-30T19:06:10.235Z,17.69
2018-04-30T19:08:37.641Z,17.68
2018-04-30T19:11:05.123Z,17.72
2018-04-30T19:13:32.554Z,17.71
2018-04-30T19:16:00.010Z,17.63
2018-04-30T19:18:27.410Z,17.61
2018-04-30T19:20:54.821Z,17.59
2018-04-30T19:23:22.224Z,17.55
2018-04-30T19:25:49.662Z,17.51
2018-04-30T19:28:17.065Z,17.47
2018-04-30T19:30:44.488Z,17.40
2018-04-30T19:33:11.973Z,17.33
2018-04-30T19:35:39.400Z,17.30
2018-04-30T19:38:06.833Z,17.32
2018-04-30T19:40:34.242Z,17.27
2018-04-30T19:43:01.648Z,17.23
2018-04-30T19:45:29.121Z,17.17
2018-04-30T19:47:56.473Z,17.12
2018-04-30T19:50:23.929Z,17.07
2018-04-30T19:52:51.376Z,17.06
2018-04-30T19:55:18.757Z,17.05
2018-04-30T19:57:46.167Z,17.01
2018-04-30T20:00:13.576Z,16.98
2018-04-30T20:02:40.983Z,16.91
2018-04-30T20:05:08.387Z,16.86
2018-04-30T20:07:35.807Z,16.77
2018-04-30T20:10:03.223Z,16.70
2018-04-30T20:12:30.635Z,16.68
2018-04-30T20:14:58.045Z,16.67
2018-04-30T20:17:25.461Z,16.66
2018-04-30T20:19:52.869Z,16.66
2018-04-30T20:22:20.293Z,16.65
2018-04-30T20:24:47.705Z,16.64
2018-04-30T20:27:15.120Z,16.58
2018-04-30T20:29:42.532Z,16.56
2018-04-30T20:32:09.958Z,16.52
2018-04-30T20:34:37.361Z,16.46
2018-04-30T20:37:04.782Z,16.40
2018-04-30T20:39:32.192Z,16.32
2018-04-30T20:41:59.609Z,16.20
2018-04-30T20:44:27.062Z,16.06
2018-04-30T20:46:54.434Z,15.95
2018-04-30T20:49:21.834Z,15.89
2018-04-30T20:51:49.245Z,15.87
2018-04-30T20:54:16.661Z,15.87
2018-04-30T20:56:44.078Z,15.85
2018-04-30T20:59:11.486Z,15.85
2018-04-30T21:01:38.901Z,15.89
2018-04-30T21:04:06.340Z,15.90
2018-04-30T21:06:33.841Z,15.85
2018-04-30T21:09:13.036Z,15.80
2018-04-30T21:11:40.452Z,15.77
2018-04-30T21:14:07.862Z,15.76
2018-04-30T21:16:35.276Z,15.76
2018-04-30T21:19:02.686Z,15.74
2018-04-30T21:21:30.101Z,15.74
2018-04-30T21:23:57.504Z,15.75
2018-04-30T21:26:24.925Z,15.74
2018-04-30T21:28:52.328Z,15.75
2018-04-30T21:31:19.753Z,15.72
2018-04-30T21:33:47.170Z,15.64
2018-04-30T21:36:14.605Z,15.60
2018-04-30T21:38:42.021Z,15.54
2018-04-30T21:41:09.428Z,15.51
2018-04-30T21:43:36.853Z,15.51
2018-04-30T21:46:04.289Z,15.49
2018-04-30T21:48:31.732Z,15.44
2018-04-30T21:50:59.123Z,15.35
2018-04-30T21:53:26.541Z,15.28
2018-04-30T21:55:53.949Z,15.21
2018-04-30T21:58:21.371Z,15.16
2018-04-30T22:00:48.773Z,15.11
2018-04-30T22:03:16.188Z,15.08
2018-04-30T22:05:43.604Z,15.00
2018-04-30T22:08:11.013Z,14.99
2018-04-30T22:10:38.429Z,14.96
2018-04-30T22:13:05.848Z,14.93
2018-04-30T22:15:33.248Z,14.90
2018-04-30T22:18:00.666Z,14.88
2018-04-30T22:20:28.072Z,14.85
2018-04-30T22:22:55.489Z,14.83
2018-04-30T22:25:22.903Z,14.81
2018-04-30T22:27:50.323Z,14.76
2018-04-30T22:30:17.724Z,14.73
2018-04-30T22:32:45.145Z,14.73
2018-04-30T22:35:12.553Z,14.72
2018-04-30T22:37:39.965Z,14.67
2018-04-30T22:40:07.366Z,14.65
2018-04-30T22:42:34.781Z,14.64
2018-04-30T22:45:02.195Z,14.66
2018-04-30T22:47:29.604Z,14.66
2018-04-30T22:49:57.005Z,14.66
2018-04-30T22:52:24.416Z,14.64
2018-04-30T22:54:51.820Z,14.64
2018-04-30T22:57:19.228Z,14.63
2018-04-30T22:59:46.628Z,14.63
2018-04-30T23:02:14.036Z,14.61
2018-04-30T23:04:41.437Z,14.57
2018-04-30T23:07:08.857Z,14.56
2018-04-30T23:09:36.265Z,14.57
2018-04-30T23:12:03.697Z,14.52
2018-04-30T23:14:31.100Z,14.48
2018-04-30T23:16:58.509Z,14.45
2018-04-30T23:19:25.924Z,14.41
2018-04-30T23:21:53.333Z,14.36
2018-04-30T23:24:20.740Z,14.30
2018-04-30T23:26:48.137Z,14.28
2018-04-30T23:29:15.548Z,14.23
2018-04-30T23:31:42.952Z,14.18
2018-04-30T23:34:10.370Z,14.13
2018-04-30T23:36:37.765Z,14.13
2018-04-30T23:39:05.963Z,14.11
2018-04-30T23:41:33.355Z,14.10
2018-04-30T23:44:00.764Z,14.09
2018-04-30T23:46:28.176Z,14.06
2018-04-30T23:48:55.585Z,14.05
2018-04-30T23:51:22.988Z,13.98
2018-04-30T23:53:50.396Z,13.94
2018-04-30T23:56:17.798Z,13.90
2018-04-30T23:58:45.205Z,13.88
